createdAt,value
2022-08-18T00:00:57.633Z,27.80
2022-08-18T00:03:14.263Z,27.77
2022-08-18T00:05:30.752Z,27.74
2022-08-18T00:07:34.182Z,27.70
2022-08-18T00:09:38.599Z,27.66
2022-08-18T00:11:43.698Z,27.64
2022-08-18T00:13:46.036Z,27.58
2022-08-18T00:15:48.881Z,27.62
2022-08-18T00:17:51.872Z,27.61
2022-08-18T00:19:54.119Z,27.60
2022-08-18T00:21:56.562Z,27.58
2022-08-18T00:23:58.871Z,27.49
2022-08-18T00:26:06.542Z,27.46
2022-08-18T00:28:09.158Z,27.46
2022-08-18T00:30:18.569Z,27.36
2022-08-18T00:32:25.394Z,27.40
2022-08-18T00:34:27.519Z,27.40
2022-08-18T00:36:35.612Z,27.40
2022-08-18T00:38:40.519Z,27.35
2022-08-18T00:40:46.779Z,27.37
2022-08-18T00:42:55.715Z,27.35
2022-08-18T00:45:03.263Z,27.37
2022-08-18T00:47:05.611Z,27.34
2022-08-18T00:49:07.777Z,27.31
2022-08-18T00:51:23.758Z,27.23
2022-08-18T00:53:36.611Z,27.24
2022-08-18T00:55:41.832Z,27.26
2022-08-18T00:58:06.682Z,27.23
2022-08-18T01:00:13.225Z,27.22
2022-08-18T01:02:20.641Z,27.20
2022-08-18T01:04:37.331Z,27.14
2022-08-18T01:06:59.094Z,27.14
2022-08-18T01:09:03.523Z,27.15
2022-08-18T01:11:05.778Z,27.13
2022-08-18T01:13:14.453Z,27.09
2022-08-18T01:15:29.443Z,27.08
2022-08-18T01:17:50.876Z,27.07
2022-08-18T01:20:11.957Z,27.05
2022-08-18T01:22:36.225Z,26.95
2022-08-18T01:24:57.283Z,26.96
2022-08-18T01:27:00.840Z,26.93
2022-08-18T01:29:11.823Z,26.90
2022-08-18T01:31:39.131Z,26.80
2022-08-18T01:33:44.215Z,26.84
2022-08-18T01:35:49.935Z,26.85
2022-08-18T01:37:53.143Z,26.83
2022-08-18T01:41:25.258Z,26.80
2022-08-18T01:42:18.937Z,26.78
2022-08-18T01:44:21.468Z,26.74
2022-08-18T01:46:27.811Z,26.75
2022-08-18T01:48:33.155Z,26.70
2022-08-18T01:50:36.694Z,26.66
2022-08-18T01:52:39.697Z,26.63
2022-08-18T01:54:43.008Z,26.63
2022-08-18T01:56:48.467Z,26.57
2022-08-18T01:58:51.044Z,26.59
2022-08-18T02:01:02.255Z,26.52
2022-08-18T02:03:08.985Z,26.52
2022-08-18T02:05:23.930Z,26.47
2022-08-18T02:07:27.957Z,26.49
2022-08-18T02:09:41.233Z,26.42
2022-08-18T02:11:43.845Z,26.39
2022-08-18T02:13:46.127Z,26.29
2022-08-18T02:15:48.345Z,26.22
2022-08-18T02:17:51.235Z,26.15
2022-08-18T02:19:53.510Z,26.17
2022-08-18T02:21:55.540Z,26.10
2022-08-18T02:23:57.596Z,26.11
2022-08-18T02:25:59.713Z,26.10
2022-08-18T02:28:02.151Z,26.07
2022-08-18T02:30:08.362Z,26.09
2022-08-18T02:32:10.927Z,25.97
2022-08-18T02:34:12.961Z,25.91
2022-08-18T02:36:15.658Z,25.83
2022-08-18T02:38:17.793Z,25.77
2022-08-18T02:40:20.004Z,25.70
2022-08-18T02:42:22.477Z,25.67
2022-08-18T02:44:24.695Z,25.63
2022-08-18T02:46:29.307Z,25.53
2022-08-18T02:48:35.982Z,25.51
2022-08-18T02:50:46.205Z,25.48
2022-08-18T02:52:49.002Z,25.41
2022-08-18T02:54:54.012Z,25.36
2022-08-18T02:56:57.496Z,25.37
2022-08-18T02:59:04.212Z,25.35
2022-08-18T03:01:06.489Z,25.29
2022-08-18T03:03:08.693Z,25.26
2022-08-18T03:05:14.521Z,25.18
2022-08-18T03:07:17.924Z,25.03
2022-08-18T03:09:20.398Z,25.09
2022-08-18T03:11:26.480Z,25.14
2022-08-18T03:13:29.677Z,25.19
2022-08-18T03:15:32.505Z,25.28
2022-08-18T03:17:38.093Z,25.32
2022-08-18T03:19:47.792Z,25.39
2022-08-18T03:21:50.057Z,25.44
2022-08-18T03:24:00.607Z,25.47
2022-08-18T03:26:03.761Z,25.44
2022-08-18T03:28:07.198Z,25.39
2022-08-18T03:30:11.315Z,25.47
2022-08-18T03:32:15.790Z,25.47
2022-08-18T03:34:20.991Z,25.50
2022-08-18T03:36:26.562Z,25.51
2022-08-18T03:38:28.708Z,25.51
2022-08-18T03:40:31.108Z,25.51
2022-08-18T03:42:35.337Z,25.52
2022-08-18T03:44:37.586Z,25.51
2022-08-18T03:46:42.454Z,25.48
2022-08-18T03:48:47.506Z,25.50
2022-08-18T03:50:50.389Z,25.49
2022-08-18T03:52:53.052Z,25.47
2022-08-18T03:54:55.121Z,25.48
2022-08-18T03:56:57.080Z,25.47
2022-08-18T03:59:05.129Z,25.42
2022-08-18T04:01:08.461Z,25.44
2022-08-18T04:03:11.565Z,25.44
2022-08-18T04:05:14.841Z,25.40
2022-08-18T04:07:17.776Z,25.45
2022-08-18T04:09:20.767Z,25.40
2022-08-18T04:11:24.002Z,25.39
2022-08-18T04:13:26.084Z,25.38
2022-08-18T04:15:31.134Z,25.35
2022-08-18T04:17:33.320Z,25.28
2022-08-18T04:19:36.000Z,25.27
2022-08-18T04:21:39.922Z,25.27
2022-08-18T04:23:43.590Z,25.23
2022-08-18T04:25:46.328Z,25.29
2022-08-18T04:27:48.631Z,25.25
2022-08-18T04:29:52.173Z,25.23
2022-08-18T04:31:55.243Z,25.20
2022-08-18T04:33:59.743Z,25.25
2022-08-18T04:36:11.602Z,25.27
2022-08-18T04:38:14.453Z,25.36
2022-08-18T04:40:19.215Z,25.43
2022-08-18T04:42:23.592Z,25.54
2022-08-18T04:44:28.884Z,25.59
2022-08-18T04:46:36.615Z,25.66
2022-08-18T04:48:45.590Z,25.67
2022-08-18T04:50:49.071Z,25.70
2022-08-18T04:53:09.525Z,25.72
2022-08-18T04:55:12.418Z,25.78
2022-08-18T04:57:18.367Z,25.88
2022-08-18T04:59:20.701Z,25.97
2022-08-18T05:01:27.223Z,26.04
2022-08-18T05:03:29.397Z,26.02
2022-08-18T05:05:32.565Z,26.04
2022-08-18T05:07:34.762Z,26.07
2022-08-18T05:09:41.455Z,26.14
2022-08-18T05:11:44.656Z,26.16
2022-08-18T05:13:46.985Z,26.24
2022-08-18T05:16:18.014Z,26.26
2022-08-18T05:18:24.528Z,26.31
2022-08-18T05:20:29.002Z,26.44
2022-08-18T05:22:40.046Z,26.51
2022-08-18T05:24:42.700Z,26.62
2022-08-18T05:26:45.735Z,26.68
2022-08-18T05:28:49.686Z,26.76
2022-08-18T05:31:13.887Z,26.81
2022-08-18T05:33:17.253Z,26.89
2022-08-18T05:35:36.392Z,26.99
2022-08-18T05:37:58.354Z,27.11
2022-08-18T05:40:07.447Z,27.12
2022-08-18T05:42:17.971Z,27.25
2022-08-18T05:44:29.626Z,27.37
2022-08-18T05:46:40.299Z,27.45
2022-08-18T05:48:43.779Z,27.55
2022-08-18T05:50:46.168Z,27.61
2022-08-18T05:53:22.744Z,27.62
2022-08-18T05:55:55.770Z,27.79
2022-08-18T05:58:12.998Z,27.87
2022-08-18T06:00:15.289Z,27.95
2022-08-18T06:02:35.594Z,27.91
2022-08-18T06:04:47.880Z,27.95
2022-08-18T06:06:51.757Z,28.00
2022-08-18T06:09:17.749Z,28.03
2022-08-18T06:11:22.395Z,28.16
2022-08-18T06:13:25.292Z,28.22
2022-08-18T06:15:36.357Z,28.27
2022-08-18T06:18:06.676Z,28.34
2022-08-18T06:20:26.980Z,28.52
2022-08-18T06:22:36.459Z,28.61
2022-08-18T06:25:24.763Z,28.73
2022-08-18T06:27:32.980Z,28.72
2022-08-18T06:30:05.525Z,28.72
2022-08-18T06:32:34.465Z,28.87
2022-08-18T06:34:51.877Z,29.07
2022-08-18T06:37:10.874Z,29.22
2022-08-18T06:39:48.240Z,29.36
2022-08-18T06:41:51.615Z,29.50
2022-08-18T06:44:06.832Z,29.58
2022-08-18T06:46:34.654Z,29.66
2022-08-18T06:48:53.865Z,29.70
2022-08-18T06:51:03.592Z,29.77
2022-08-18T06:53:27.282Z,29.87
2022-08-18T06:55:48.621Z,29.99
2022-08-18T06:58:00.160Z,30.12
2022-08-18T07:00:18.297Z,30.26
2022-08-18T07:02:35.790Z,30.40
2022-08-18T07:04:40.406Z,30.49
2022-08-18T07:06:43.906Z,30.52
2022-08-18T07:08:49.386Z,30.66
2022-08-18T07:10:53.393Z,30.74
2022-08-18T07:13:36.938Z,30.84
2022-08-18T07:15:39.680Z,30.98
2022-08-18T07:17:49.336Z,30.94
2022-08-18T07:20:09.214Z,30.99
2022-08-18T07:22:18.135Z,31.10
2022-08-18T07:24:38.839Z,31.17
2022-08-18T07:27:04.888Z,31.31
2022-08-18T07:29:15.754Z,31.42
2022-08-18T07:31:31.070Z,31.50
2022-08-18T07:33:33.758Z,31.65
2022-08-18T07:35:56.676Z,31.79
2022-08-18T07:38:38.684Z,31.89
2022-08-18T07:40:57.901Z,32.03
2022-08-18T07:43:01.031Z,32.13
2022-08-18T07:45:19.857Z,32.24
2022-08-18T07:47:35.175Z,32.35
2022-08-18T07:49:46.035Z,32.46
2022-08-18T07:52:36.287Z,32.53
2022-08-18T07:54:51.235Z,32.67
2022-08-18T07:57:22.807Z,32.78
2022-08-18T08:00:00.265Z,32.87
2022-08-18T08:02:22.170Z,32.84
2022-08-18T08:04:50.729Z,32.75
2022-08-18T08:07:26.484Z,32.80
2022-08-18T08:09:51.631Z,32.89
2022-08-18T08:11:59.879Z,33.08
2022-08-18T08:14:39.685Z,33.17
2022-08-18T08:16:49.613Z,33.23
2022-08-18T08:19:12.652Z,33.26
2022-08-18T08:21:19.167Z,33.34
2022-08-18T08:23:27.709Z,33.42
2022-08-18T08:25:51.772Z,33.46
2022-08-18T08:28:03.483Z,33.58
2022-08-18T08:30:12.092Z,33.67
2022-08-18T08:32:32.719Z,33.75
2022-08-18T08:34:46.118Z,33.85
2022-08-18T08:36:54.225Z,34.00
2022-08-18T08:39:12.792Z,34.04
2022-08-18T08:41:47.165Z,34.08
2022-08-18T08:44:06.536Z,34.24
2022-08-18T08:46:11.517Z,34.36
2022-08-18T08:48:21.166Z,34.45
2022-08-18T08:50:30.282Z,34.55
2022-08-18T08:52:46.461Z,34.60
2022-08-18T08:54:57.610Z,34.59
2022-08-18T08:57:01.590Z,34.62
2022-08-18T08:59:09.222Z,34.70
2022-08-18T09:01:23.306Z,34.75
2022-08-18T09:03:33.156Z,34.82
2022-08-18T09:05:56.627Z,34.87
2022-08-18T09:08:21.156Z,34.97
2022-08-18T09:10:40.258Z,35.01
2022-08-18T09:12:58.527Z,35.01
2022-08-18T09:15:17.542Z,35.02
2022-08-18T09:17:45.897Z,34.91
2022-08-18T09:20:03.344Z,34.93
2022-08-18T09:22:33.855Z,34.96
2022-08-18T09:24:57.590Z,35.04
2022-08-18T09:27:02.919Z,35.15
2022-08-18T09:29:22.042Z,35.19
2022-08-18T09:31:25.288Z,35.25
2022-08-18T09:33:49.431Z,35.32
2022-08-18T09:35:58.975Z,35.40
2022-08-18T09:38:29.127Z,35.42
2022-08-18T09:43:26.478Z,35.58
2022-08-18T09:45:33.691Z,35.64
2022-08-18T09:47:39.292Z,35.68
2022-08-18T09:49:53.652Z,35.67
2022-08-18T09:52:51.372Z,35.55
2022-08-18T09:55:09.099Z,35.50
2022-08-18T09:57:19.666Z,35.50
2022-08-18T09:59:36.825Z,35.61
2022-08-18T10:01:41.891Z,35.73
2022-08-18T10:03:45.083Z,35.83
2022-08-18T10:06:05.538Z,35.87
2022-08-18T10:08:21.590Z,35.99
2022-08-18T10:11:00.785Z,36.11
2022-08-18T10:16:13.925Z,36.18
2022-08-18T10:18:48.408Z,36.18
2022-08-18T10:21:01.147Z,36.25
2022-08-18T10:23:07.281Z,36.27
2022-08-18T10:27:46.060Z,36.38
2022-08-18T10:29:53.823Z,36.47
2022-08-18T10:32:01.843Z,36.53
2022-08-18T10:34:17.107Z,36.54
2022-08-18T10:36:58.982Z,36.57
2022-08-18T10:39:06.730Z,36.65
2022-08-18T10:41:19.842Z,36.60
2022-08-18T10:46:25.501Z,36.67
2022-08-18T10:48:33.535Z,36.68
2022-08-18T10:50:51.606Z,36.57
2022-08-18T10:56:05.831Z,36.59
2022-08-18T10:58:28.608Z,36.63
2022-08-18T11:00:39.859Z,36.64
2022-08-18T11:03:40.101Z,36.75
2022-08-18T11:05:31.965Z,36.90
2022-08-18T11:07:35.910Z,36.89
2022-08-18T11:09:51.004Z,36.87
2022-08-18T11:12:03.260Z,36.88
2022-08-18T11:14:23.938Z,36.79
2022-08-18T11:16:50.613Z,36.79
2022-08-18T11:19:09.847Z,36.77
2022-08-18T11:21:30.995Z,36.79
2022-08-18T11:23:33.205Z,36.91
2022-08-18T11:25:38.610Z,36.97
2022-08-18T11:27:46.933Z,37.03
2022-08-18T11:29:51.696Z,37.11
2022-08-18T11:32:03.849Z,37.14
2022-08-18T11:34:06.924Z,37.18
2022-08-18T11:36:09.521Z,37.24
2022-08-18T11:43:13.223Z,37.31
2022-08-18T11:45:24.892Z,37.40
2022-08-18T11:47:30.284Z,37.42
2022-08-18T11:49:33.928Z,37.44
2022-08-18T11:51:36.305Z,37.38
2022-08-18T11:53:58.013Z,37.35
2022-08-18T11:56:16.374Z,37.43
2022-08-18T11:58:45.117Z,37.40
2022-08-18T12:00:47.034Z,37.48
2022-08-18T12:02:49.513Z,37.56
2022-08-18T12:04:57.916Z,37.57
2022-08-18T12:07:06.642Z,37.61
2022-08-18T12:09:54.102Z,37.58
2022-08-18T12:11:55.998Z,37.44
2022-08-18T12:14:32.667Z,37.43
2022-08-18T12:16:50.751Z,37.27
2022-08-18T12:18:52.974Z,37.25
2022-08-18T12:21:02.735Z,37.27
2022-08-18T12:23:06.051Z,37.31
2022-08-18T12:25:13.349Z,37.33
2022-08-18T12:27:21.760Z,37.37
2022-08-18T12:29:32.604Z,37.36
2022-08-18T12:31:42.276Z,37.36
2022-08-18T12:33:59.881Z,37.44
2022-08-18T12:36:05.350Z,37.48
2022-08-18T12:38:13.231Z,37.53
2022-08-18T12:40:17.256Z,37.56
2022-08-18T12:42:20.405Z,37.57
2022-08-18T12:44:22.973Z,37.58
2022-08-18T12:46:30.823Z,37.59
2022-08-18T12:48:37.984Z,37.60
2022-08-18T12:50:54.159Z,37.62
2022-08-18T12:53:00.990Z,37.57
2022-08-18T12:55:04.058Z,37.48
2022-08-18T12:57:16.907Z,37.42
2022-08-18T12:59:32.564Z,37.43
2022-08-18T13:01:40.901Z,37.39
2022-08-18T13:04:10.671Z,37.38
2022-08-18T13:06:09.576Z,37.32
2022-08-18T13:08:30.318Z,37.26
2022-08-18T13:10:45.815Z,37.18
2022-08-18T13:12:49.274Z,37.16
2022-08-18T13:14:58.234Z,37.18
2022-08-18T13:17:03.770Z,37.17
2022-08-18T13:19:13.208Z,37.15
2022-08-18T13:21:18.740Z,37.15
2022-08-18T13:23:24.671Z,37.15
2022-08-18T13:25:33.300Z,37.19
2022-08-18T13:27:45.294Z,37.20
2022-08-18T13:29:56.039Z,37.20
2022-08-18T13:31:59.769Z,37.29
2022-08-18T13:34:03.808Z,37.33
2022-08-18T13:36:07.415Z,37.37
2022-08-18T13:38:18.924Z,37.41
2022-08-18T13:40:24.369Z,37.42
2022-08-18T13:42:50.624Z,37.40
2022-08-18T13:44:55.196Z,37.45
2022-08-18T13:46:59.701Z,37.50
2022-08-18T13:49:09.433Z,37.46
2022-08-18T13:51:20.526Z,37.38
2022-08-18T13:53:27.241Z,37.33
2022-08-18T13:55:29.880Z,37.33
2022-08-18T13:57:32.080Z,37.36
2022-08-18T13:59:34.732Z,37.39
2022-08-18T14:01:44.973Z,37.36
2022-08-18T14:03:53.946Z,37.38
2022-08-18T14:06:01.802Z,37.42
2022-08-18T14:08:05.614Z,37.40
2022-08-18T14:10:10.639Z,37.46
2022-08-18T14:12:28.198Z,37.39
2022-08-18T14:14:34.027Z,37.39
2022-08-18T14:16:36.807Z,37.38
2022-08-18T14:18:45.774Z,37.33
2022-08-18T14:21:06.837Z,37.31
2022-08-18T14:23:33.395Z,37.27
2022-08-18T14:25:57.611Z,37.19
2022-08-18T14:28:04.088Z,37.23
2022-08-18T14:30:10.025Z,37.14
2022-08-18T14:32:18.221Z,37.11
2022-08-18T14:34:30.522Z,37.12
2022-08-18T14:36:35.146Z,37.10
2022-08-18T14:38:38.182Z,37.09
2022-08-18T14:40:43.114Z,37.07
2022-08-18T14:42:55.093Z,37.10
2022-08-18T14:45:17.295Z,37.11
2022-08-18T14:47:24.246Z,37.09
2022-08-18T14:49:29.529Z,37.04
2022-08-18T14:51:34.890Z,37.07
2022-08-18T14:53:37.875Z,37.07
2022-08-18T14:55:39.876Z,37.04
2022-08-18T14:57:42.733Z,37.07
2022-08-18T14:59:47.821Z,37.05
2022-08-18T15:01:50.273Z,37.00
2022-08-18T15:03:55.049Z,36.96
2022-08-18T15:05:59.073Z,36.92
2022-08-18T15:08:06.964Z,36.88
2022-08-18T15:10:16.803Z,36.94
2022-08-18T15:12:24.795Z,36.97
2022-08-18T15:14:33.522Z,36.97
2022-08-18T15:16:39.786Z,36.91
2022-08-18T15:18:47.177Z,36.88
2022-08-18T15:21:35.069Z,36.86
2022-08-18T15:23:57.082Z,36.87
2022-08-18T15:26:00.846Z,36.92
2022-08-18T15:28:03.399Z,36.88
2022-08-18T15:30:13.009Z,36.82
2022-08-18T15:32:22.527Z,36.80
2022-08-18T15:34:27.421Z,36.78
2022-08-18T15:36:31.899Z,36.79
2022-08-18T15:38:37.188Z,36.79
2022-08-18T15:40:58.366Z,36.70
2022-08-18T15:43:10.113Z,36.75
2022-08-18T15:45:16.106Z,36.76
2022-08-18T15:47:21.067Z,36.72
2022-08-18T15:49:24.468Z,36.73
2022-08-18T15:51:27.499Z,36.73
2022-08-18T15:53:40.077Z,36.67
2022-08-18T15:55:50.079Z,36.66
2022-08-18T15:57:58.581Z,36.63
2022-08-18T16:00:01.513Z,36.58
2022-08-18T16:02:19.280Z,36.56
2022-08-18T16:04:21.895Z,36.55
2022-08-18T16:06:32.299Z,36.49
2022-08-18T16:08:35.166Z,36.47
2022-08-18T16:10:39.717Z,36.50
2022-08-18T16:12:45.934Z,36.47
2022-08-18T16:14:53.531Z,36.37
2022-08-18T16:17:00.219Z,36.27
2022-08-18T16:19:02.620Z,36.27
2022-08-18T16:21:13.798Z,36.27
2022-08-18T16:23:16.832Z,36.19
2022-08-18T16:25:22.630Z,36.19
2022-08-18T16:27:30.023Z,36.12
2022-08-18T16:29:33.148Z,36.10
2022-08-18T16:31:35.565Z,36.08
2022-08-18T16:33:38.732Z,36.05
2022-08-18T16:35:45.322Z,36.00
2022-08-18T16:37:50.022Z,36.01
2022-08-18T16:39:53.237Z,35.96
2022-08-18T16:41:58.835Z,35.95
2022-08-18T16:44:01.337Z,35.89
2022-08-18T16:46:09.348Z,35.85
2022-08-18T16:48:14.216Z,35.85
2022-08-18T16:50:18.659Z,35.82
2022-08-18T16:52:20.767Z,35.80
2022-08-18T16:54:22.796Z,35.78
2022-08-18T16:56:28.701Z,35.69
2022-08-18T16:58:48.989Z,35.68
2022-08-18T17:01:12.630Z,35.65
2022-08-18T17:03:39.172Z,35.55
2022-08-18T17:05:40.988Z,35.50
2022-08-18T17:07:42.834Z,35.50
2022-08-18T17:09:44.975Z,35.48
2022-08-18T17:11:51.982Z,35.45
2022-08-18T17:13:57.497Z,35.40
2022-08-18T17:15:59.330Z,35.38
2022-08-18T17:18:01.311Z,35.37
2022-08-18T17:20:06.979Z,35.33
2022-08-18T17:22:14.535Z,35.28
2022-08-18T17:24:18.555Z,35.21
2022-08-18T17:26:49.586Z,35.09
2022-08-18T17:28:56.826Z,35.09
2022-08-18T17:30:58.722Z,35.06
2022-08-18T17:33:10.777Z,35.00
2022-08-18T17:35:26.343Z,34.98
2022-08-18T17:37:31.236Z,34.92
2022-08-18T17:39:52.095Z,34.84
2022-08-18T17:42:12.551Z,34.82
2022-08-18T17:44:14.420Z,34.77
2022-08-18T17:46:28.608Z,34.71
2022-08-18T17:48:32.566Z,34.69
2022-08-18T17:51:20.959Z,34.64
2022-08-18T17:53:22.973Z,34.58
2022-08-18T17:55:30.131Z,34.53
2022-08-18T17:57:38.427Z,34.46
2022-08-18T18:00:06.167Z,34.35
2022-08-18T18:02:18.316Z,34.32
2022-08-18T18:04:30.875Z,34.25
2022-08-18T18:06:36.036Z,34.18
2022-08-18T18:08:55.528Z,34.07
2022-08-18T18:11:10.841Z,33.99
2022-08-18T18:13:24.374Z,33.94
2022-08-18T18:15:32.282Z,33.83
2022-08-18T18:17:39.697Z,33.82
2022-08-18T18:19:47.828Z,33.74
2022-08-18T18:22:04.737Z,33.62
2022-08-18T18:24:06.534Z,33.63
2022-08-18T18:26:48.540Z,33.49
2022-08-18T18:28:50.950Z,33.49
2022-08-18T18:30:53.624Z,33.43
2022-08-18T18:33:05.645Z,33.34
2022-08-18T18:35:18.755Z,33.31
2022-08-18T18:37:33.179Z,33.28
2022-08-18T18:39:36.219Z,33.23
2022-08-18T18:41:40.050Z,33.16
2022-08-18T18:43:46.635Z,33.11
2022-08-18T18:46:23.077Z,32.88
2022-08-18T18:48:45.309Z,32.73
2022-08-18T18:51:10.345Z,32.65
2022-08-18T18:53:29.165Z,32.63
2022-08-18T18:55:37.050Z,32.70
2022-08-18T18:57:54.228Z,32.63
2022-08-18T19:00:19.673Z,32.61
2022-08-18T19:02:35.203Z,32.61
2022-08-18T19:04:47.688Z,32.60
2022-08-18T19:07:26.078Z,32.51
2022-08-18T19:09:38.916Z,32.52
2022-08-18T19:11:44.520Z,32.48
2022-08-18T19:13:55.432Z,32.41
2022-08-18T19:16:03.759Z,32.37
2022-08-18T19:18:28.735Z,32.25
2022-08-18T19:20:43.301Z,32.21
2022-08-18T19:23:33.845Z,32.16
2022-08-18T19:25:45.590Z,32.11
2022-08-18T19:27:52.662Z,32.09
2022-08-18T19:29:59.632Z,32.02
2022-08-18T19:32:16.419Z,31.91
2022-08-18T19:34:30.977Z,31.87
2022-08-18T19:36:45.170Z,31.77
2022-08-18T19:39:05.331Z,31.70
2022-08-18T19:41:57.183Z,31.59
2022-08-18T19:44:05.496Z,31.54
2022-08-18T19:46:29.330Z,31.50
2022-08-18T19:49:01.532Z,31.45
2022-08-18T19:51:13.298Z,31.45
2022-08-18T19:53:45.311Z,31.14
2022-08-18T19:55:49.003Z,30.81
2022-08-18T19:58:02.948Z,30.65
2022-08-18T20:00:14.314Z,30.44
2022-08-18T20:03:00.371Z,30.31
2022-08-18T20:05:39.207Z,29.91
2022-08-18T20:08:15.558Z,29.78
2022-08-18T20:10:52.485Z,29.45
2022-08-18T20:13:15.695Z,29.46
2022-08-18T20:15:25.289Z,29.62
2022-08-18T20:17:27.574Z,29.71
2022-08-18T20:19:41.162Z,29.56
2022-08-18T20:21:47.874Z,29.64
2022-08-18T20:23:56.335Z,29.73
2022-08-18T20:25:58.427Z,29.85
2022-08-18T20:28:00.225Z,29.88
2022-08-18T20:30:08.865Z,29.86
2022-08-18T20:32:29.707Z,29.85
2022-08-18T20:34:33.873Z,29.93
2022-08-18T20:36:37.005Z,29.92
2022-08-18T20:38:46.598Z,29.86
2022-08-18T20:40:51.350Z,29.78
2022-08-18T20:43:06.940Z,29.65
2022-08-18T20:45:23.940Z,29.51
2022-08-18T20:47:42.011Z,29.41
2022-08-18T20:50:03.937Z,29.41
2022-08-18T20:52:29.148Z,29.44
2022-08-18T20:55:11.786Z,29.44
2022-08-18T20:57:15.093Z,29.57
2022-08-18T20:59:20.862Z,29.63
2022-08-18T21:01:27.403Z,29.63
2022-08-18T21:03:40.866Z,29.66
2022-08-18T21:05:45.561Z,29.71
2022-08-18T21:07:58.604Z,29.69
2022-08-18T21:10:12.671Z,29.71
2022-08-18T21:12:25.724Z,29.65
2022-08-18T21:14:30.809Z,29.68
2022-08-18T21:16:49.146Z,29.60
2022-08-18T21:19:01.148Z,29.54
2022-08-18T21:21:07.414Z,29.57
2022-08-18T21:23:12.990Z,29.50
2022-08-18T21:25:17.274Z,29.32
2022-08-18T21:27:34.240Z,28.86
2022-08-18T21:29:47.295Z,28.60
2022-08-18T21:31:52.148Z,28.62
2022-08-18T21:34:04.887Z,28.66
2022-08-18T21:36:12.250Z,28.77
2022-08-18T21:38:14.241Z,28.90
2022-08-18T21:40:17.552Z,29.01
2022-08-18T21:42:24.724Z,29.07
2022-08-18T21:44:45.475Z,29.06
2022-08-18T21:46:49.012Z,29.14
2022-08-18T21:48:53.858Z,29.15
2022-08-18T21:51:01.362Z,29.14
2022-08-18T21:53:16.552Z,29.16
2022-08-18T21:55:42.446Z,29.12
2022-08-18T21:57:47.750Z,29.14
2022-08-18T22:00:13.793Z,28.77
2022-08-18T22:02:25.141Z,28.68
2022-08-18T22:04:36.191Z,28.72
2022-08-18T22:06:41.188Z,28.74
2022-08-18T22:09:28.169Z,28.70
2022-08-18T22:12:01.440Z,28.86
2022-08-18T22:14:36.058Z,28.76
2022-08-18T22:17:27.851Z,28.72
2022-08-18T22:19:32.584Z,28.74
2022-08-18T22:21:41.803Z,28.68
2022-08-18T22:24:05.371Z,28.65
2022-08-18T22:26:13.134Z,28.59
2022-08-18T22:28:22.459Z,28.57
2022-08-18T22:30:25.071Z,28.63
2022-08-18T22:32:27.663Z,28.66
2022-08-18T22:34:33.323Z,28.54
2022-08-18T22:36:41.395Z,28.44
2022-08-18T22:38:44.828Z,28.42
2022-08-18T22:40:50.351Z,28.35
2022-08-18T22:42:52.708Z,28.36
2022-08-18T22:44:57.992Z,28.25
2022-08-18T22:47:04.796Z,28.21
2022-08-18T22:49:07.006Z,28.18
2022-08-18T22:51:09.927Z,27.92
2022-08-18T22:53:17.885Z,27.88
2022-08-18T22:55:23.962Z,27.81
2022-08-18T22:57:26.575Z,27.79
2022-08-18T22:59:29.801Z,27.83
2022-08-18T23:01:35.025Z,27.88
2022-08-18T23:03:42.111Z,27.92
2022-08-18T23:05:45.022Z,27.96
2022-08-18T23:07:47.452Z,27.99
2022-08-18T23:09:49.794Z,27.97
2022-08-18T23:11:54.773Z,27.95
2022-08-18T23:13:57.887Z,27.91
2022-08-18T23:16:30.268Z,27.93
2022-08-18T23:18:23.215Z,27.85
2022-08-18T23:20:26.858Z,27.83
2022-08-18T23:22:29.412Z,27.85
2022-08-18T23:24:31.987Z,27.85
2022-08-18T23:26:37.500Z,27.84
2022-08-18T23:28:52.530Z,27.82
2022-08-18T23:30:57.030Z,27.75
2022-08-18T23:33:01.941Z,27.68
2022-08-18T23:35:05.221Z,27.67
2022-08-18T23:37:10.561Z,27.66
2022-08-18T23:39:16.085Z,27.66
2022-08-18T23:41:18.380Z,27.66
2022-08-18T23:43:21.022Z,27.61
2022-08-18T23:45:23.661Z,27.59
2022-08-18T23:47:25.816Z,27.55
2022-08-18T23:49:31.292Z,27.53
2022-08-18T23:51:46.754Z,27.47
2022-08-18T23:53:52.444Z,27.47
2022-08-18T23:55:54.733Z,27.44
2022-08-18T23:57:56.836Z,27.39
2022-08-18T23:59:59.146Z,27.36
